createdAt,value
2023-03-31T00:01:09.394Z,-0.20
2023-03-31T00:03:39.142Z,-0.20
2023-03-31T00:06:06.562Z,-0.30
2023-03-31T00:08:37.623Z,-0.30
2023-03-31T00:11:07.762Z,-0.20
2023-03-31T00:13:36.193Z,-0.20
2023-03-31T00:16:08.210Z,-0.30
2023-03-31T00:18:35.934Z,-0.30
2023-03-31T00:21:14.912Z,-0.20
2023-03-31T00:23:42.601Z,-0.30
2023-03-31T00:26:09.591Z,-0.30
2023-03-31T00:28:36.704Z,-0.30
2023-03-31T00:31:04.590Z,-0.30
2023-03-31T00:33:31.604Z,-0.30
2023-03-31T00:36:02.207Z,-0.30
2023-03-31T00:38:30.584Z,-0.40
2023-03-31T00:40:57.892Z,-0.40
2023-03-31T00:43:34.512Z,-0.40
2023-03-31T00:46:18.067Z,-0.40
2023-03-31T00:48:52.652Z,-0.40
2023-03-31T00:51:22.394Z,-0.40
2023-03-31T00:54:00.883Z,-0.40
2023-03-31T00:56:34.499Z,-0.30
2023-03-31T00:59:04.100Z,-0.40
2023-03-31T01:01:31.931Z,-0.40
2023-03-31T01:03:59.577Z,-0.40
2023-03-31T01:06:31.026Z,-0.40
2023-03-31T01:08:58.393Z,-0.50
2023-03-31T01:11:27.666Z,-0.50
2023-03-31T01:13:56.909Z,-0.50
2023-03-31T01:16:24.407Z,-0.40
2023-03-31T01:18:51.713Z,-0.40
2023-03-31T01:21:37.876Z,-0.40
2023-03-31T01:24:20.760Z,-0.50
2023-03-31T01:27:05.012Z,-0.50
2023-03-31T01:30:03.101Z,-0.50
2023-03-31T01:32:33.182Z,-0.60
2023-03-31T01:35:12.242Z,-0.50
2023-03-31T01:37:58.114Z,-0.60
2023-03-31T01:40:37.201Z,-0.50
2023-03-31T01:43:12.569Z,-0.50
2023-03-31T01:45:57.554Z,-0.50
2023-03-31T01:48:52.981Z,-0.50
2023-03-31T01:51:34.440Z,-0.50
2023-03-31T01:54:11.958Z,-0.60
2023-03-31T01:56:43.938Z,-0.60
2023-03-31T01:59:39.077Z,-0.60
2023-03-31T02:02:13.087Z,-0.60
2023-03-31T02:04:57.276Z,-0.70
2023-03-31T02:07:43.425Z,-0.70
2023-03-31T02:10:12.971Z,-0.70
2023-03-31T02:12:43.138Z,-0.70
2023-03-31T02:15:14.840Z,-0.80
2023-03-31T02:17:46.022Z,-0.70
2023-03-31T02:20:16.132Z,-0.80
2023-03-31T02:22:49.136Z,-0.70
2023-03-31T02:25:19.554Z,-0.80
2023-03-31T02:27:58.331Z,-0.70
2023-03-31T02:30:35.608Z,-0.70
2023-03-31T02:33:05.462Z,-0.80
2023-03-31T02:35:35.315Z,-0.70
2023-03-31T02:38:02.714Z,-0.80
2023-03-31T02:40:30.922Z,-0.80
2023-03-31T02:42:57.896Z,-0.80
2023-03-31T02:45:44.828Z,-0.80
2023-03-31T02:48:21.398Z,-0.80
2023-03-31T02:51:07.679Z,-0.90
2023-03-31T02:53:40.830Z,-0.90
2023-03-31T02:56:26.554Z,-0.90
2023-03-31T02:59:24.325Z,-0.90
2023-03-31T03:02:01.017Z,-0.90
2023-03-31T03:04:42.329Z,-0.90
2023-03-31T03:07:45.808Z,-0.90
2023-03-31T03:10:38.274Z,-0.90
2023-03-31T03:13:08.292Z,-0.90
2023-03-31T03:15:49.953Z,-0.90
2023-03-31T03:18:17.387Z,-0.90
2023-03-31T03:20:48.622Z,-0.90
2023-03-31T03:23:16.943Z,-0.90
2023-03-31T03:25:44.702Z,-1.00
2023-03-31T03:28:11.942Z,-0.90
2023-03-31T03:30:39.156Z,-0.90
2023-03-31T03:33:07.091Z,-0.90
2023-03-31T03:35:34.802Z,-0.90
2023-03-31T03:38:02.081Z,-0.80
2023-03-31T03:40:29.167Z,-0.90
2023-03-31T03:42:56.367Z,-0.90
2023-03-31T03:45:23.448Z,-0.90
2023-03-31T03:47:50.650Z,-0.90
2023-03-31T03:50:17.789Z,-0.90
2023-03-31T03:52:45.227Z,-0.90
2023-03-31T03:55:12.570Z,-0.90
2023-03-31T03:57:39.950Z,-0.90
2023-03-31T04:00:13.901Z,-0.90
2023-03-31T04:02:41.136Z,-0.90
2023-03-31T04:05:08.660Z,-0.90
2023-03-31T04:07:35.927Z,-0.90
2023-03-31T04:10:03.311Z,-1.00
2023-03-31T04:12:30.262Z,-1.00
2023-03-31T04:14:57.405Z,-1.00
2023-03-31T04:17:32.899Z,-0.90
2023-03-31T04:20:09.419Z,-0.90
2023-03-31T04:22:41.170Z,-0.90
2023-03-31T04:25:10.779Z,-0.90
2023-03-31T04:27:37.972Z,-0.90
2023-03-31T04:30:05.809Z,-1.00
2023-03-31T04:32:33.299Z,-0.90
2023-03-31T04:35:03.010Z,-1.00
2023-03-31T04:37:35.078Z,-1.00
2023-03-31T04:40:08.264Z,-1.00
2023-03-31T04:42:36.637Z,-0.90
2023-03-31T04:45:04.493Z,-0.90
2023-03-31T04:47:31.534Z,-1.00
2023-03-31T04:50:04.503Z,-0.90
2023-03-31T04:52:31.777Z,-1.00
2023-03-31T04:54:58.800Z,-0.90
2023-03-31T04:57:25.987Z,-0.90
2023-03-31T05:00:23.351Z,-0.90
2023-03-31T05:02:51.883Z,-0.90
2023-03-31T05:05:19.809Z,-0.90
2023-03-31T05:07:47.058Z,-0.90
2023-03-31T05:10:15.225Z,-0.90
2023-03-31T05:12:42.245Z,-1.00
2023-03-31T05:15:10.023Z,-0.90
2023-03-31T05:17:38.301Z,-0.80
2023-03-31T05:20:07.195Z,-0.90
2023-03-31T05:22:44.266Z,-0.80
2023-03-31T05:25:14.617Z,-0.80
2023-03-31T05:27:41.972Z,-0.90
2023-03-31T05:30:09.642Z,-0.90
2023-03-31T05:32:36.806Z,-0.90
2023-03-31T05:35:04.125Z,-0.80
2023-03-31T05:37:31.823Z,-0.80
2023-03-31T05:39:59.208Z,-0.80
2023-03-31T05:42:26.306Z,-0.70
2023-03-31T05:44:53.381Z,-0.70
2023-03-31T05:47:20.567Z,-0.80
2023-03-31T05:49:47.853Z,-0.80
2023-03-31T05:52:15.188Z,-0.80
2023-03-31T05:54:43.037Z,-0.90
2023-03-31T05:57:10.665Z,-0.80
2023-03-31T05:59:42.648Z,-0.80
2023-03-31T06:02:13.456Z,-0.80
2023-03-31T06:04:40.534Z,-0.80
2023-03-31T06:07:08.437Z,-0.90
2023-03-31T06:09:36.003Z,-0.90
2023-03-31T06:12:03.411Z,-0.80
2023-03-31T06:14:30.580Z,-0.80
2023-03-31T06:16:58.089Z,-0.80
2023-03-31T06:19:25.159Z,-0.70
2023-03-31T06:21:52.933Z,-0.70
2023-03-31T06:24:20.119Z,-0.80
2023-03-31T06:26:47.237Z,-0.70
2023-03-31T06:29:14.466Z,-0.70
2023-03-31T06:31:41.657Z,-0.80
2023-03-31T06:34:08.687Z,-0.60
2023-03-31T06:36:36.018Z,-0.60
2023-03-31T06:39:03.064Z,-0.60
2023-03-31T06:41:30.243Z,-0.80
2023-03-31T06:43:57.307Z,-0.70
2023-03-31T06:46:24.500Z,-0.60
2023-03-31T06:48:51.600Z,-0.50
2023-03-31T06:51:18.845Z,-0.60
2023-03-31T06:53:46.157Z,-0.60
2023-03-31T06:56:16.516Z,-0.60
2023-03-31T06:58:43.742Z,-0.60
2023-03-31T07:01:12.038Z,-0.50
2023-03-31T07:03:39.545Z,-0.40
2023-03-31T07:06:07.141Z,-0.40
2023-03-31T07:08:34.175Z,-0.40
2023-03-31T07:11:07.278Z,-0.40
2023-03-31T07:13:34.676Z,-0.30
2023-03-31T07:16:01.763Z,-0.40
2023-03-31T07:18:35.079Z,-0.50
2023-03-31T07:21:05.160Z,-0.40
2023-03-31T07:23:35.856Z,-0.40
2023-03-31T07:26:02.916Z,-0.40
2023-03-31T07:28:31.090Z,-0.30
2023-03-31T07:30:58.306Z,-0.20
2023-03-31T07:33:25.626Z,-0.10
2023-03-31T07:36:07.904Z,-0.10
2023-03-31T07:38:37.525Z,-0.10
2023-03-31T07:41:08.996Z,0.00
2023-03-31T07:43:37.027Z,0.00
2023-03-31T07:46:08.818Z,0.10
2023-03-31T07:48:38.476Z,0.20
2023-03-31T07:51:05.745Z,0.30
2023-03-31T07:53:33.203Z,0.30
2023-03-31T07:56:00.443Z,0.30
2023-03-31T07:58:27.515Z,0.10
2023-03-31T08:00:54.804Z,0.40
2023-03-31T08:03:22.452Z,0.30
2023-03-31T08:05:52.648Z,0.20
2023-03-31T08:08:21.361Z,0.40
2023-03-31T08:10:49.503Z,0.50
2023-03-31T08:13:16.595Z,0.50
2023-03-31T08:15:44.157Z,0.50
2023-03-31T08:18:11.490Z,0.70
2023-03-31T08:20:39.879Z,0.60
2023-03-31T08:23:09.359Z,0.70
2023-03-31T08:25:36.526Z,0.50
2023-03-31T08:28:03.778Z,0.70
2023-03-31T08:30:31.604Z,0.90
2023-03-31T08:32:58.818Z,0.90
2023-03-31T08:35:25.938Z,1.00
2023-03-31T08:37:53.490Z,1.20
2023-03-31T08:40:26.189Z,1.10
2023-03-31T08:43:26.928Z,0.90
2023-03-31T08:45:56.131Z,1.00
2023-03-31T08:48:45.566Z,1.10
2023-03-31T08:51:24.420Z,1.00
2023-03-31T08:53:53.671Z,1.00
2023-03-31T08:56:25.754Z,1.30
2023-03-31T08:58:53.360Z,1.30
2023-03-31T09:01:30.447Z,1.20
2023-03-31T09:04:18.786Z,1.00
2023-03-31T09:07:10.508Z,1.10
2023-03-31T09:10:00.889Z,0.90
2023-03-31T09:12:47.697Z,1.10
2023-03-31T09:15:55.936Z,1.60
2023-03-31T09:18:36.073Z,1.80
2023-03-31T09:21:20.807Z,1.60
2023-03-31T09:24:15.769Z,1.30
2023-03-31T09:26:47.200Z,1.00
2023-03-31T09:29:37.559Z,1.10
2023-03-31T09:32:14.767Z,1.10
2023-03-31T09:34:42.285Z,0.80
2023-03-31T09:37:13.359Z,0.80
2023-03-31T09:39:41.243Z,0.80
2023-03-31T09:42:12.956Z,0.70
2023-03-31T09:44:43.335Z,0.80
2023-03-31T09:47:43.283Z,0.90
2023-03-31T09:50:11.841Z,1.20
2023-03-31T09:52:46.552Z,0.80
2023-03-31T09:55:39.166Z,1.20
2023-03-31T09:58:12.296Z,0.80
2023-03-31T10:00:42.517Z,1.00
2023-03-31T10:03:13.780Z,0.70
2023-03-31T10:05:53.042Z,1.00
2023-03-31T10:08:22.798Z,1.40
2023-03-31T10:11:07.994Z,1.10
2023-03-31T10:14:03.929Z,1.30
2023-03-31T10:16:32.463Z,1.50
2023-03-31T10:19:20.006Z,1.60
2023-03-31T10:21:49.250Z,1.50
2023-03-31T10:24:20.060Z,1.40
2023-03-31T10:26:54.429Z,1.50
2023-03-31T10:29:31.674Z,1.60
2023-03-31T10:32:10.281Z,1.90
2023-03-31T10:34:42.603Z,1.90
2023-03-31T10:37:17.465Z,1.90
2023-03-31T10:39:46.267Z,2.00
2023-03-31T10:42:23.554Z,1.80
2023-03-31T10:44:50.799Z,1.80
2023-03-31T10:47:21.298Z,1.60
2023-03-31T10:49:51.959Z,1.70
2023-03-31T10:52:22.813Z,1.80
2023-03-31T10:54:58.675Z,1.60
2023-03-31T10:57:45.954Z,1.70
2023-03-31T11:00:30.015Z,1.90
2023-03-31T11:03:20.061Z,1.80
2023-03-31T11:05:54.912Z,1.90
2023-03-31T11:08:52.657Z,1.90
2023-03-31T11:11:50.246Z,2.00
2023-03-31T11:14:26.225Z,2.10
2023-03-31T11:17:03.402Z,2.20
2023-03-31T11:19:39.545Z,2.40
2023-03-31T11:22:10.946Z,2.00
2023-03-31T11:24:58.129Z,2.10
2023-03-31T11:27:54.055Z,2.00
2023-03-31T11:30:51.494Z,1.90
2023-03-31T11:34:07.278Z,1.90
2023-03-31T11:36:57.468Z,2.00
2023-03-31T11:39:51.350Z,2.10
2023-03-31T11:42:52.786Z,2.10
2023-03-31T11:45:29.925Z,1.90
2023-03-31T11:48:13.557Z,2.10
2023-03-31T11:50:45.682Z,2.20
2023-03-31T11:53:30.700Z,2.20
2023-03-31T11:56:07.124Z,2.10
2023-03-31T11:58:39.500Z,2.10
2023-03-31T12:01:31.938Z,2.20
2023-03-31T12:04:34.440Z,2.10
2023-03-31T12:07:25.126Z,1.90
2023-03-31T12:10:11.284Z,2.00
2023-03-31T12:12:51.798Z,1.60
2023-03-31T12:15:37.782Z,1.80
2023-03-31T12:18:20.998Z,1.90
2023-03-31T12:21:01.301Z,1.80
2023-03-31T12:23:34.903Z,1.90
2023-03-31T12:26:51.129Z,2.10
2023-03-31T12:29:41.728Z,2.20
2023-03-31T12:32:26.831Z,2.20
2023-03-31T12:35:02.383Z,2.40
2023-03-31T12:38:07.298Z,2.80
2023-03-31T12:40:43.980Z,2.90
2023-03-31T12:43:48.674Z,3.00
2023-03-31T12:46:36.739Z,3.00
2023-03-31T12:49:13.517Z,2.70
2023-03-31T12:51:56.335Z,2.80
2023-03-31T12:54:35.505Z,3.40
2023-03-31T12:57:14.512Z,3.80
2023-03-31T12:59:45.951Z,3.40
2023-03-31T13:02:16.319Z,3.70
2023-03-31T13:04:44.475Z,4.10
2023-03-31T13:07:28.246Z,3.30
2023-03-31T13:10:17.115Z,3.80
2023-03-31T13:12:57.648Z,3.40
2023-03-31T13:15:26.161Z,3.40
2023-03-31T13:18:08.195Z,4.00
2023-03-31T13:20:41.168Z,3.60
2023-03-31T13:23:28.911Z,3.80
2023-03-31T13:25:57.521Z,3.10
2023-03-31T13:28:40.468Z,3.50
2023-03-31T13:31:10.743Z,3.50
2023-03-31T13:34:01.718Z,3.30
2023-03-31T13:36:40.644Z,2.90
2023-03-31T13:39:45.065Z,3.50
2023-03-31T13:42:44.598Z,2.90
2023-03-31T13:45:30.598Z,2.90
2023-03-31T13:48:25.670Z,3.00
2023-03-31T13:51:34.856Z,2.80
2023-03-31T13:54:21.976Z,2.70
2023-03-31T13:57:07.569Z,2.70
2023-03-31T13:59:55.379Z,2.50
2023-03-31T14:02:44.800Z,2.40
2023-03-31T14:05:52.520Z,2.60
2023-03-31T14:08:49.361Z,2.50
2023-03-31T14:11:19.300Z,2.40
2023-03-31T14:14:06.925Z,2.10
2023-03-31T14:16:44.662Z,1.90
2023-03-31T14:19:30.534Z,2.30
2023-03-31T14:22:19.554Z,2.30
2023-03-31T14:25:03.570Z,2.30
2023-03-31T14:28:05.891Z,2.00
2023-03-31T14:30:43.634Z,2.10
2023-03-31T14:33:26.361Z,2.00
2023-03-31T14:36:28.700Z,1.90
2023-03-31T14:39:03.121Z,2.00
2023-03-31T14:41:30.462Z,2.10
2023-03-31T14:44:19.588Z,2.10
2023-03-31T14:46:47.277Z,2.10
2023-03-31T14:49:28.748Z,2.00
2023-03-31T14:52:02.062Z,2.10
2023-03-31T14:54:34.907Z,2.00
2023-03-31T14:57:25.934Z,1.90
2023-03-31T14:59:54.152Z,1.90
2023-03-31T15:02:41.886Z,1.90
2023-03-31T15:05:20.116Z,1.90
2023-03-31T15:07:49.040Z,1.90
2023-03-31T15:10:37.433Z,1.70
2023-03-31T15:13:16.122Z,1.80
2023-03-31T15:15:46.318Z,1.90
2023-03-31T15:18:14.846Z,1.90
2023-03-31T15:20:44.351Z,1.90
2023-03-31T15:23:28.074Z,1.80
2023-03-31T15:25:59.505Z,1.80
2023-03-31T15:28:32.342Z,1.90
2023-03-31T15:31:10.029Z,1.90
2023-03-31T15:33:42.181Z,1.90
2023-03-31T15:36:12.518Z,1.90
2023-03-31T15:38:40.836Z,1.90
2023-03-31T15:41:17.248Z,1.80
2023-03-31T15:43:55.777Z,1.80
2023-03-31T15:46:40.261Z,1.80
2023-03-31T15:49:21.487Z,1.70
2023-03-31T15:51:50.944Z,1.70
2023-03-31T15:54:38.548Z,1.70
2023-03-31T15:57:09.969Z,1.70
2023-03-31T15:59:57.150Z,1.50
2023-03-31T16:02:28.923Z,1.60
2023-03-31T16:04:59.224Z,1.60
2023-03-31T16:07:34.249Z,1.60
2023-03-31T16:10:16.819Z,1.50
2023-03-31T16:13:03.079Z,1.50
2023-03-31T16:15:38.307Z,1.50
2023-03-31T16:18:14.740Z,1.40
2023-03-31T16:20:53.590Z,1.40
2023-03-31T16:23:25.165Z,1.40
2023-03-31T16:25:52.837Z,1.40
2023-03-31T16:28:37.715Z,1.20
2023-03-31T16:31:26.228Z,1.20
2023-03-31T16:33:59.924Z,1.30
2023-03-31T16:36:27.404Z,1.20
2023-03-31T16:38:55.248Z,1.20
2023-03-31T16:41:23.620Z,1.20
2023-03-31T16:43:52.687Z,1.20
2023-03-31T16:46:20.381Z,1.20
2023-03-31T16:48:47.587Z,1.20
2023-03-31T16:51:30.972Z,1.10
2023-03-31T16:53:59.386Z,1.00
2023-03-31T16:56:27.268Z,1.00
2023-03-31T16:58:54.533Z,0.90
2023-03-31T17:01:21.948Z,0.80
2023-03-31T17:03:49.465Z,0.80
2023-03-31T17:06:17.006Z,0.80
2023-03-31T17:08:44.049Z,0.80
2023-03-31T17:11:14.411Z,0.80
2023-03-31T17:13:43.269Z,0.70
2023-03-31T17:18:42.242Z,0.60
2023-03-31T17:21:20.677Z,0.60
2023-03-31T17:23:49.910Z,0.50
2023-03-31T17:26:18.108Z,0.50
2023-03-31T17:28:45.810Z,0.50
2023-03-31T17:31:14.523Z,0.40
2023-03-31T17:33:42.577Z,0.40
2023-03-31T17:36:10.495Z,0.40
2023-03-31T17:38:39.142Z,0.30
2023-03-31T17:41:08.408Z,0.30
2023-03-31T17:43:35.631Z,0.30
2023-03-31T17:46:05.240Z,0.20
2023-03-31T17:48:35.526Z,0.10
2023-03-31T17:51:13.925Z,0.10
2023-03-31T17:53:43.486Z,0.00
2023-03-31T17:56:10.575Z,0.00
2023-03-31T17:58:37.776Z,-0.10
2023-03-31T18:01:07.783Z,-0.20
2023-03-31T18:03:35.460Z,-0.20
2023-03-31T18:06:11.917Z,-0.20
2023-03-31T18:08:39.909Z,-0.20
2023-03-31T18:11:08.739Z,-0.20
2023-03-31T18:13:37.539Z,-0.30
2023-03-31T18:16:05.696Z,-0.30
2023-03-31T18:18:32.776Z,-0.30
2023-03-31T18:21:07.910Z,-0.40
2023-03-31T18:23:35.436Z,-0.40
2023-03-31T18:26:07.137Z,-0.40
2023-03-31T18:28:34.992Z,-0.50
2023-03-31T18:31:06.138Z,-0.40
2023-03-31T18:33:33.469Z,-0.50
2023-03-31T18:36:01.999Z,-0.60
2023-03-31T18:38:29.306Z,-0.60
2023-03-31T18:40:57.019Z,-0.60
2023-03-31T18:43:25.060Z,-0.60
2023-03-31T18:45:54.155Z,-0.60
2023-03-31T18:48:23.700Z,-0.70
2023-03-31T18:50:52.185Z,-0.70
2023-03-31T18:53:20.945Z,-0.70
2023-03-31T18:55:53.804Z,-0.70
2023-03-31T18:58:22.954Z,-0.80
2023-03-31T19:00:50.875Z,-0.70
2023-03-31T19:03:19.501Z,-0.80
2023-03-31T19:05:47.178Z,-0.80
2023-03-31T19:08:14.334Z,-0.80
2023-03-31T19:10:42.085Z,-0.80
2023-03-31T19:13:12.528Z,-0.90
2023-03-31T19:15:39.812Z,-0.90
2023-03-31T19:18:07.270Z,-0.90
2023-03-31T19:20:34.822Z,-0.90
2023-03-31T19:23:02.287Z,-1.00
2023-03-31T19:25:29.781Z,-1.00
2023-03-31T19:27:57.703Z,-1.00
2023-03-31T19:30:25.276Z,-1.00
2023-03-31T19:32:52.365Z,-1.10
2023-03-31T19:35:20.796Z,-1.00
2023-03-31T19:37:49.730Z,-1.10
2023-03-31T19:40:16.937Z,-1.00
2023-03-31T19:42:45.187Z,-1.10
2023-03-31T19:45:12.797Z,-1.10
2023-03-31T19:47:41.327Z,-1.10
2023-03-31T19:50:09.324Z,-1.10
2023-03-31T19:52:36.873Z,-1.20
2023-03-31T19:55:04.176Z,-1.20
2023-03-31T19:57:31.856Z,-1.20
2023-03-31T19:59:59.154Z,-1.20
2023-03-31T20:02:27.143Z,-1.20
2023-03-31T20:04:54.419Z,-1.20
2023-03-31T20:07:21.645Z,-1.20
2023-03-31T20:09:48.778Z,-1.30
2023-03-31T20:12:15.889Z,-1.30
2023-03-31T20:14:43.727Z,-1.40
2023-03-31T20:17:12.873Z,-1.40
2023-03-31T20:19:40.392Z,-1.50
2023-03-31T20:22:13.337Z,-1.40
2023-03-31T20:24:42.276Z,-1.50
2023-03-31T20:27:09.916Z,-1.50
2023-03-31T20:29:37.222Z,-1.60
2023-03-31T20:32:04.284Z,-1.60
2023-03-31T20:34:31.754Z,-1.60
2023-03-31T20:36:59.226Z,-1.50
2023-03-31T20:39:26.438Z,-1.50
2023-03-31T20:41:56.000Z,-1.60
2023-03-31T20:44:23.535Z,-1.60
2023-03-31T20:46:51.862Z,-1.60
2023-03-31T20:49:18.982Z,-1.60
2023-03-31T20:51:47.230Z,-1.70
2023-03-31T20:54:14.270Z,-1.60
2023-03-31T20:56:41.916Z,-1.70
2023-03-31T20:59:12.620Z,-1.70
2023-03-31T21:01:42.503Z,-1.70
2023-03-31T21:04:11.357Z,-1.80
2023-03-31T21:06:44.615Z,-1.80
2023-03-31T21:09:13.066Z,-1.80
2023-03-31T21:11:40.848Z,-1.80
2023-03-31T21:14:11.296Z,-1.80
2023-03-31T21:16:38.413Z,-1.80
2023-03-31T21:19:05.752Z,-1.80
2023-03-31T21:21:36.294Z,-1.80
2023-03-31T21:24:03.474Z,-1.80
2023-03-31T21:26:35.462Z,-1.80
2023-03-31T21:29:03.796Z,-1.80
2023-03-31T21:31:31.198Z,-1.80
2023-03-31T21:33:59.082Z,-1.90
2023-03-31T21:36:27.017Z,-1.90
2023-03-31T21:38:58.003Z,-1.90
2023-03-31T21:41:28.269Z,-1.90
2023-03-31T21:43:56.489Z,-2.00
2023-03-31T21:46:26.987Z,-2.00
2023-03-31T21:48:54.646Z,-2.00
2023-03-31T21:51:24.963Z,-2.10
2023-03-31T21:53:55.914Z,-2.00
2023-03-31T21:56:25.106Z,-2.00
2023-03-31T21:58:53.019Z,-2.00
2023-03-31T22:01:22.010Z,-2.10
2023-03-31T22:03:51.089Z,-2.10
2023-03-31T22:06:19.803Z,-2.10
2023-03-31T22:08:48.416Z,-2.10
2023-03-31T22:11:16.802Z,-2.20
2023-03-31T22:13:47.484Z,-2.20
2023-03-31T22:16:21.767Z,-2.20
2023-03-31T22:18:51.048Z,-2.20
2023-03-31T22:21:26.014Z,-2.20
2023-03-31T22:23:56.272Z,-2.40
2023-03-31T22:26:24.314Z,-2.30
2023-03-31T22:28:51.620Z,-2.30
2023-03-31T22:31:19.657Z,-2.40
2023-03-31T22:33:49.199Z,-2.40
2023-03-31T22:36:16.299Z,-2.40
2023-03-31T22:38:43.397Z,-2.40
2023-03-31T22:41:10.979Z,-2.40
2023-03-31T22:43:38.678Z,-2.40
2023-03-31T22:46:07.533Z,-2.40
2023-03-31T22:48:34.867Z,-2.40
2023-03-31T22:51:09.067Z,-2.50
2023-03-31T22:53:36.597Z,-2.50
2023-03-31T22:56:09.325Z,-2.50
2023-03-31T22:58:36.521Z,-2.40
2023-03-31T23:01:04.543Z,-2.50
2023-03-31T23:03:31.893Z,-2.50
2023-03-31T23:06:03.653Z,-2.40
2023-03-31T23:08:31.206Z,-2.40
2023-03-31T23:11:03.684Z,-2.50
2023-03-31T23:13:32.894Z,-2.60
2023-03-31T23:16:05.534Z,-2.50
2023-03-31T23:18:33.365Z,-2.50
2023-03-31T23:21:04.360Z,-2.60
2023-03-31T23:23:32.096Z,-2.60
2023-03-31T23:26:06.560Z,-2.60
2023-03-31T23:28:38.167Z,-2.50
2023-03-31T23:31:05.782Z,-2.50
2023-03-31T23:33:33.135Z,-2.50
2023-03-31T23:36:05.939Z,-2.60
2023-03-31T23:38:35.986Z,-2.60
2023-03-31T23:41:03.749Z,-2.60
2023-03-31T23:43:30.805Z,-2.60
2023-03-31T23:45:58.203Z,-2.60
2023-03-31T23:48:25.461Z,-2.60
2023-03-31T23:50:52.523Z,-2.70
2023-03-31T23:53:19.854Z,-2.70
2023-03-31T23:56:08.779Z,-2.70
2023-03-31T23:58:36.379Z,-2.70
